sensor_id;sensor_type;location;lat;lon;timestamp;pressure;altitude;pressure_sealevel;temperature;humidity
80321;BME280;69633;47.066;15.450;2023-12-28T00:00:33;98165.22;;;4.42;80.82
80321;BME280;69633;47.066;15.450;2023-12-28T00:02:58;98164.69;;;4.45;81.74
80321;BME280;69633;47.066;15.450;2023-12-28T00:05:24;98161.50;;;4.43;83.26
80321;BME280;69633;47.066;15.450;2023-12-28T00:07:49;98155.78;;;4.35;85.26
80321;BME280;69633;47.066;15.450;2023-12-28T00:10:22;98154.25;;;4.34;85.03
80321;BME280;69633;47.066;15.450;2023-12-28T00:12:48;98154.81;;;4.21;86.04
80321;BME280;69633;47.066;15.450;2023-12-28T00:15:13;98158.75;;;4.24;85.91
80321;BME280;69633;47.066;15.450;2023-12-28T00:17:38;98160.88;;;4.22;86.75
80321;BME280;69633;47.066;15.450;2023-12-28T00:20:04;98150.66;;;4.15;86.19
80321;BME280;69633;47.066;15.450;2023-12-28T00:22:30;98150.13;;;4.13;86.80
80321;BME280;69633;47.066;15.450;2023-12-28T00:24:55;98152.53;;;4.10;86.83
80321;BME280;69633;47.066;15.450;2023-12-28T00:27:21;98145.44;;;4.05;87.19
80321;BME280;69633;47.066;15.450;2023-12-28T00:29:46;98151.75;;;4.09;87.03
80321;BME280;69633;47.066;15.450;2023-12-28T00:32:12;98150.19;;;4.08;86.49
80321;BME280;69633;47.066;15.450;2023-12-28T00:34:37;98157.53;;;4.06;84.95
80321;BME280;69633;47.066;15.450;2023-12-28T00:37:05;98154.91;;;4.11;84.57
80321;BME280;69633;47.066;15.450;2023-12-28T00:39:30;98161.97;;;4.16;84.25
80321;BME280;69633;47.066;15.450;2023-12-28T00:41:55;98164.06;;;4.14;84.49
80321;BME280;69633;47.066;15.450;2023-12-28T00:44:21;98162.47;;;4.18;84.57
80321;BME280;69633;47.066;15.450;2023-12-28T00:46:46;98158.31;;;4.07;85.20
80321;BME280;69633;47.066;15.450;2023-12-28T00:49:12;98158.59;;;4.05;85.11
80321;BME280;69633;47.066;15.450;2023-12-28T00:51:37;98151.78;;;4.04;85.07
80321;BME280;69633;47.066;15.450;2023-12-28T00:54:03;98153.31;;;4.10;85.18
80321;BME280;69633;47.066;15.450;2023-12-28T00:56:28;98148.06;;;4.10;85.19
80321;BME280;69633;47.066;15.450;2023-12-28T00:58:53;98147.34;;;4.00;85.59
80321;BME280;69633;47.066;15.450;2023-12-28T01:01:20;98156.00;;;3.95;86.15
80321;BME280;69633;47.066;15.450;2023-12-28T01:03:45;98161.81;;;3.87;86.64
80321;BME280;69633;47.066;15.450;2023-12-28T01:06:11;98160.00;;;3.87;87.08
80321;BME280;69633;47.066;15.450;2023-12-28T01:08:36;98155.50;;;3.93;87.02
80321;BME280;69633;47.066;15.450;2023-12-28T01:11:02;98161.22;;;4.05;86.59
80321;BME280;69633;47.066;15.450;2023-12-28T01:13:28;98156.53;;;3.97;86.28
80321;BME280;69633;47.066;15.450;2023-12-28T01:15:53;98157.13;;;3.84;86.37
80321;BME280;69633;47.066;15.450;2023-12-28T01:18:19;98146.94;;;3.72;86.27
80321;BME280;69633;47.066;15.450;2023-12-28T01:20:45;98150.34;;;3.68;84.99
80321;BME280;69633;47.066;15.450;2023-12-28T01:23:10;98156.63;;;3.72;83.78
80321;BME280;69633;47.066;15.450;2023-12-28T01:25:36;98148.78;;;3.67;82.57
80321;BME280;69633;47.066;15.450;2023-12-28T01:28:01;98156.44;;;3.63;82.25
80321;BME280;69633;47.066;15.450;2023-12-28T01:30:27;98149.03;;;3.70;81.73
80321;BME280;69633;47.066;15.450;2023-12-28T01:32:53;98152.75;;;3.59;81.23
80321;BME280;69633;47.066;15.450;2023-12-28T01:35:18;98157.75;;;3.56;81.79
80321;BME280;69633;47.066;15.450;2023-12-28T01:37:44;98162.22;;;3.55;82.40
80321;BME280;69633;47.066;15.450;2023-12-28T01:40:10;98148.81;;;3.57;83.44
80321;BME280;69633;47.066;15.450;2023-12-28T01:42:36;98153.00;;;3.63;86.05
80321;BME280;69633;47.066;15.450;2023-12-28T01:45:02;98148.25;;;3.75;86.28
80321;BME280;69633;47.066;15.450;2023-12-28T01:47:28;98149.00;;;3.75;86.55
80321;BME280;69633;47.066;15.450;2023-12-28T01:49:54;98147.22;;;3.66;85.69
80321;BME280;69633;47.066;15.450;2023-12-28T01:52:20;98148.31;;;3.60;86.53
80321;BME280;69633;47.066;15.450;2023-12-28T01:54:46;98153.81;;;3.53;86.54
80321;BME280;69633;47.066;15.450;2023-12-28T01:57:13;98144.94;;;3.34;87.38
80321;BME280;69633;47.066;15.450;2023-12-28T01:59:39;98141.59;;;3.18;87.77
80321;BME280;69633;47.066;15.450;2023-12-28T02:02:06;98147.88;;;3.17;88.38
80321;BME280;69633;47.066;15.450;2023-12-28T02:04:31;98143.13;;;3.19;88.54
80321;BME280;69633;47.066;15.450;2023-12-28T02:06:59;98141.84;;;3.22;88.17
80321;BME280;69633;47.066;15.450;2023-12-28T02:09:25;98139.94;;;3.37;87.27
80321;BME280;69633;47.066;15.450;2023-12-28T02:11:51;98142.81;;;3.51;87.07
80321;BME280;69633;47.066;15.450;2023-12-28T02:14:17;98133.84;;;3.62;87.03
80321;BME280;69633;47.066;15.450;2023-12-28T02:17:04;98120.97;;;3.66;86.41
80321;BME280;69633;47.066;15.450;2023-12-28T02:19:53;98106.88;;;3.41;83.33
80321;BME280;69633;47.066;15.450;2023-12-28T02:22:20;98108.00;;;3.25;84.69
80321;BME280;69633;47.066;15.450;2023-12-28T02:25:11;98109.34;;;3.08;85.67
80321;BME280;69633;47.066;15.450;2023-12-28T02:27:43;98105.38;;;3.15;85.65
80321;BME280;69633;47.066;15.450;2023-12-28T02:30:15;98102.53;;;3.02;85.59
80321;BME280;69633;47.066;15.450;2023-12-28T02:32:54;98104.13;;;2.82;85.96
80321;BME280;69633;47.066;15.450;2023-12-28T02:35:33;98094.97;;;2.75;86.15
80321;BME280;69633;47.066;15.450;2023-12-28T02:38:03;98084.78;;;2.68;85.52
80321;BME280;69633;47.066;15.450;2023-12-28T02:40:36;98091.31;;;2.71;85.81
80321;BME280;69633;47.066;15.450;2023-12-28T02:43:03;98085.81;;;2.77;85.77
80321;BME280;69633;47.066;15.450;2023-12-28T02:45:28;98085.50;;;2.89;84.52
80321;BME280;69633;47.066;15.450;2023-12-28T02:47:54;98094.44;;;2.88;83.87
80321;BME280;69633;47.066;15.450;2023-12-28T02:50:19;98072.16;;;2.85;83.33
80321;BME280;69633;47.066;15.450;2023-12-28T02:52:45;98076.88;;;2.78;83.51
80321;BME280;69633;47.066;15.450;2023-12-28T02:55:10;98081.91;;;2.70;82.72
80321;BME280;69633;47.066;15.450;2023-12-28T02:57:35;98066.41;;;2.63;83.18
80321;BME280;69633;47.066;15.450;2023-12-28T03:00:04;98075.09;;;2.59;82.95
80321;BME280;69633;47.066;15.450;2023-12-28T03:02:30;98069.06;;;2.48;82.62
80321;BME280;69633;47.066;15.450;2023-12-28T03:04:56;98071.41;;;2.50;82.90
80321;BME280;69633;47.066;15.450;2023-12-28T03:07:21;98068.28;;;2.58;82.99
80321;BME280;69633;47.066;15.450;2023-12-28T03:09:47;98065.09;;;2.71;82.43
80321;BME280;69633;47.066;15.450;2023-12-28T03:12:12;98065.38;;;2.69;82.44
80321;BME280;69633;47.066;15.450;2023-12-28T03:14:38;98048.38;;;2.62;82.87
80321;BME280;69633;47.066;15.450;2023-12-28T03:17:03;98057.25;;;2.61;83.33
80321;BME280;69633;47.066;15.450;2023-12-28T03:19:29;98056.44;;;2.70;86.56
80321;BME280;69633;47.066;15.450;2023-12-28T03:21:54;98061.94;;;2.74;87.57
80321;BME280;69633;47.066;15.450;2023-12-28T03:24:20;98057.25;;;2.76;87.61
80321;BME280;69633;47.066;15.450;2023-12-28T03:26:45;98046.75;;;2.71;87.72
80321;BME280;69633;47.066;15.450;2023-12-28T03:29:11;98042.56;;;2.75;87.40
80321;BME280;69633;47.066;15.450;2023-12-28T03:31:39;98042.56;;;2.75;87.07
80321;BME280;69633;47.066;15.450;2023-12-28T03:34:06;98033.16;;;2.69;86.25
80321;BME280;69633;47.066;15.450;2023-12-28T03:36:31;98034.19;;;2.68;84.62
80321;BME280;69633;47.066;15.450;2023-12-28T03:38:56;98031.56;;;2.68;83.22
80321;BME280;69633;47.066;15.450;2023-12-28T03:41:22;98019.00;;;2.65;83.37
80321;BME280;69633;47.066;15.450;2023-12-28T03:43:47;98023.19;;;2.61;84.11
80321;BME280;69633;47.066;15.450;2023-12-28T03:46:13;98014.06;;;2.53;83.25
80321;BME280;69633;47.066;15.450;2023-12-28T03:48:39;98015.63;;;2.54;83.73
80321;BME280;69633;47.066;15.450;2023-12-28T03:51:05;98014.84;;;2.49;84.18
80321;BME280;69633;47.066;15.450;2023-12-28T03:53:31;98014.06;;;2.43;84.55
80321;BME280;69633;47.066;15.450;2023-12-28T03:55:59;98013.00;;;2.49;84.62
80321;BME280;69633;47.066;15.450;2023-12-28T03:58:25;98016.16;;;2.51;85.02
80321;BME280;69633;47.066;15.450;2023-12-28T04:00:51;98020.59;;;2.61;85.31
80321;BME280;69633;47.066;15.450;2023-12-28T04:03:16;98010.06;;;2.71;86.72
80321;BME280;69633;47.066;15.450;2023-12-28T04:05:43;98006.41;;;2.72;86.37
80321;BME280;69633;47.066;15.450;2023-12-28T04:08:09;98010.91;;;2.61;85.60
80321;BME280;69633;47.066;15.450;2023-12-28T04:10:34;98007.25;;;2.47;86.45
80321;BME280;69633;47.066;15.450;2023-12-28T04:13:02;98002.81;;;2.27;86.67
80321;BME280;69633;47.066;15.450;2023-12-28T04:15:27;98007.50;;;2.25;86.51
80321;BME280;69633;47.066;15.450;2023-12-28T04:17:53;97991.03;;;2.20;87.07
80321;BME280;69633;47.066;15.450;2023-12-28T04:20:18;97997.59;;;2.17;86.68
80321;BME280;69633;47.066;15.450;2023-12-28T04:22:44;98006.75;;;2.15;87.01
80321;BME280;69633;47.066;15.450;2023-12-28T04:25:10;98000.47;;;2.21;86.53
80321;BME280;69633;47.066;15.450;2023-12-28T04:27:37;97993.38;;;2.21;86.63
80321;BME280;69633;47.066;15.450;2023-12-28T04:30:03;97993.91;;;2.18;86.04
80321;BME280;69633;47.066;15.450;2023-12-28T04:32:31;97996.53;;;2.18;85.57
80321;BME280;69633;47.066;15.450;2023-12-28T04:34:57;97995.75;;;2.08;83.13
80321;BME280;69633;47.066;15.450;2023-12-28T04:37:23;97999.66;;;2.00;82.88
80321;BME280;69633;47.066;15.450;2023-12-28T04:39:48;98009.13;;;2.06;82.95
80321;BME280;69633;47.066;15.450;2023-12-28T04:42:14;98001.50;;;2.05;81.84
80321;BME280;69633;47.066;15.450;2023-12-28T04:44:39;98003.88;;;2.06;82.41
80321;BME280;69633;47.066;15.450;2023-12-28T04:47:05;98010.13;;;2.10;81.58
80321;BME280;69633;47.066;15.450;2023-12-28T04:49:30;98008.06;;;2.12;80.90
80321;BME280;69633;47.066;15.450;2023-12-28T04:51:56;98008.81;;;2.03;81.11
80321;BME280;69633;47.066;15.450;2023-12-28T04:54:22;98017.97;;;1.95;81.70
80321;BME280;69633;47.066;15.450;2023-12-28T04:56:47;98015.09;;;1.91;82.02
80321;BME280;69633;47.066;15.450;2023-12-28T04:59:14;98002.00;;;1.91;81.74
80321;BME280;69633;47.066;15.450;2023-12-28T05:01:43;98012.22;;;1.88;81.88
80321;BME280;69633;47.066;15.450;2023-12-28T05:04:09;98010.66;;;1.87;82.32
80321;BME280;69633;47.066;15.450;2023-12-28T05:06:35;98017.47;;;1.98;82.37
80321;BME280;69633;47.066;15.450;2023-12-28T05:09:01;98009.88;;;1.97;82.41
80321;BME280;69633;47.066;15.450;2023-12-28T05:11:27;98009.63;;;1.93;82.77
80321;BME280;69633;47.066;15.450;2023-12-28T05:13:53;98010.94;;;1.90;82.81
80321;BME280;69633;47.066;15.450;2023-12-28T05:16:19;98012.47;;;1.91;82.57
80321;BME280;69633;47.066;15.450;2023-12-28T05:18:45;98022.19;;;1.91;82.70
80321;BME280;69633;47.066;15.450;2023-12-28T05:21:11;98027.91;;;1.88;82.35
80321;BME280;69633;47.066;15.450;2023-12-28T05:23:37;98018.50;;;1.82;82.22
80321;BME280;69633;47.066;15.450;2023-12-28T05:26:03;98031.59;;;1.87;81.66
80321;BME280;69633;47.066;15.450;2023-12-28T05:28:28;98022.44;;;1.94;82.07
80321;BME280;69633;47.066;15.450;2023-12-28T05:30:53;98020.09;;;1.93;81.86
80321;BME280;69633;47.066;15.450;2023-12-28T05:33:19;98019.56;;;1.91;81.57
80321;BME280;69633;47.066;15.450;2023-12-28T05:35:44;98014.34;;;1.91;81.61
80321;BME280;69633;47.066;15.450;2023-12-28T05:38:10;98016.94;;;1.96;81.75
80321;BME280;69633;47.066;15.450;2023-12-28T05:40:35;98013.28;;;1.92;81.51
80321;BME280;69633;47.066;15.450;2023-12-28T05:43:01;98021.38;;;1.95;82.01
80321;BME280;69633;47.066;15.450;2023-12-28T05:45:26;98018.50;;;1.92;81.75
80321;BME280;69633;47.066;15.450;2023-12-28T05:47:52;98018.25;;;1.83;81.22
80321;BME280;69633;47.066;15.450;2023-12-28T05:50:17;98019.53;;;1.81;81.34
80321;BME280;69633;47.066;15.450;2023-12-28T05:52:43;98019.03;;;1.79;81.54
80321;BME280;69633;47.066;15.450;2023-12-28T05:55:08;98025.81;;;1.75;81.36
80321;BME280;69633;47.066;15.450;2023-12-28T05:57:34;98022.69;;;1.78;81.11
80321;BME280;69633;47.066;15.450;2023-12-28T05:59:59;98021.63;;;1.84;81.16
80321;BME280;69633;47.066;15.450;2023-12-28T06:02:24;98022.69;;;1.83;81.31
80321;BME280;69633;47.066;15.450;2023-12-28T06:04:50;98023.22;;;1.80;81.79
80321;BME280;69633;47.066;15.450;2023-12-28T06:07:15;98023.22;;;1.85;81.29
80321;BME280;69633;47.066;15.450;2023-12-28T06:09:41;98020.34;;;1.86;81.40
80321;BME280;69633;47.066;15.450;2023-12-28T06:12:07;98015.09;;;1.91;81.11
80321;BME280;69633;47.066;15.450;2023-12-28T06:14:33;98018.50;;;1.92;81.22
80321;BME280;69633;47.066;15.450;2023-12-28T06:16:58;98008.56;;;1.89;81.61
80321;BME280;69633;47.066;15.450;2023-12-28T06:19:23;98019.56;;;1.86;81.45
80321;BME280;69633;47.066;15.450;2023-12-28T06:21:49;98018.78;;;1.90;81.51
80321;BME280;69633;47.066;15.450;2023-12-28T06:24:15;98018.78;;;1.95;80.53
80321;BME280;69633;47.066;15.450;2023-12-28T06:26:41;98020.59;;;1.85;80.76
80321;BME280;69633;47.066;15.450;2023-12-28T06:29:08;98023.22;;;1.85;80.83
80321;BME280;69633;47.066;15.450;2023-12-28T06:31:35;98022.69;;;1.88;80.92
80321;BME280;69633;47.066;15.450;2023-12-28T06:34:05;98028.44;;;1.85;82.08
80321;BME280;69633;47.066;15.450;2023-12-28T06:36:31;98032.38;;;1.82;82.53
80321;BME280;69633;47.066;15.450;2023-12-28T06:38:58;98039.97;;;1.79;82.63
80321;BME280;69633;47.066;15.450;2023-12-28T06:41:24;98049.06;;;1.66;82.36
80321;BME280;69633;47.066;15.450;2023-12-28T06:43:50;98054.00;;;1.48;82.95
80321;BME280;69633;47.066;15.450;2023-12-28T06:46:16;98046.09;;;1.32;83.20
80321;BME280;69633;47.066;15.450;2023-12-28T06:48:41;98040.31;;;1.25;83.04
80321;BME280;69633;47.066;15.450;2023-12-28T06:51:09;98034.03;;;1.21;83.49
80321;BME280;69633;47.066;15.450;2023-12-28T06:53:35;98045.53;;;1.25;83.17
80321;BME280;69633;47.066;15.450;2023-12-28T06:56:00;98046.03;;;1.17;83.16
80321;BME280;69633;47.066;15.450;2023-12-28T06:58:25;98049.72;;;1.21;83.56
80321;BME280;69633;47.066;15.450;2023-12-28T07:00:51;98051.53;;;1.16;83.26
80321;BME280;69633;47.066;15.450;2023-12-28T07:03:16;98062.47;;;1.13;83.44
80321;BME280;69633;47.066;15.450;2023-12-28T07:05:42;98054.34;;;1.09;83.77
80321;BME280;69633;47.066;15.450;2023-12-28T07:08:07;98043.94;;;1.14;83.14
80321;BME280;69633;47.066;15.450;2023-12-28T07:10:33;98055.16;;;1.10;82.98
80321;BME280;69633;47.066;15.450;2023-12-28T07:12:58;98053.31;;;1.10;83.11
80321;BME280;69633;47.066;15.450;2023-12-28T07:15:24;98059.09;;;1.12;82.51
80321;BME280;69633;47.066;15.450;2023-12-28T07:17:50;98055.66;;;1.07;83.35
80321;BME280;69633;47.066;15.450;2023-12-28T07:20:15;98058.56;;;1.10;82.95
80321;BME280;69633;47.066;15.450;2023-12-28T07:22:41;98059.88;;;1.18;83.38
80321;BME280;69633;47.066;15.450;2023-12-28T07:25:07;98052.34;;;1.26;82.80
80321;BME280;69633;47.066;15.450;2023-12-28T07:27:34;98057.88;;;1.40;82.23
80321;BME280;69633;47.066;15.450;2023-12-28T07:29:59;98054.00;;;1.48;81.38
80321;BME280;69633;47.066;15.450;2023-12-28T07:32:25;98069.16;;;1.45;81.17
80321;BME280;69633;47.066;15.450;2023-12-28T07:34:54;98062.84;;;1.36;81.92
80321;BME280;69633;47.066;15.450;2023-12-28T07:37:20;98061.81;;;1.37;81.72
80321;BME280;69633;47.066;15.450;2023-12-28T07:39:47;98062.31;;;1.39;81.89
80321;BME280;69633;47.066;15.450;2023-12-28T07:42:13;98061.28;;;1.40;81.70
80321;BME280;69633;47.066;15.450;2023-12-28T07:44:38;98066.78;;;1.44;81.99
80321;BME280;69633;47.066;15.450;2023-12-28T07:47:04;98062.91;;;1.52;82.13
80321;BME280;69633;47.066;15.450;2023-12-28T07:49:30;98063.47;;;1.64;81.92
80321;BME280;69633;47.066;15.450;2023-12-28T07:51:56;98065.06;;;1.75;82.03
80321;BME280;69633;47.066;15.450;2023-12-28T07:54:22;98068.47;;;1.80;81.04
80321;BME280;69633;47.066;15.450;2023-12-28T07:56:47;98065.88;;;1.85;81.36
80321;BME280;69633;47.066;15.450;2023-12-28T07:59:13;98064.28;;;1.84;81.12
80321;BME280;69633;47.066;15.450;2023-12-28T08:01:38;98065.88;;;1.85;81.23
80321;BME280;69633;47.066;15.450;2023-12-28T08:04:04;98061.44;;;1.86;81.22
80321;BME280;69633;47.066;15.450;2023-12-28T08:06:29;98064.59;;;1.98;80.81
80321;BME280;69633;47.066;15.450;2023-12-28T08:08:59;98066.19;;;2.09;80.51
80321;BME280;69633;47.066;15.450;2023-12-28T08:11:27;98073.00;;;2.20;80.02
80321;BME280;69633;47.066;15.450;2023-12-28T08:13:52;98069.34;;;2.31;80.05
80321;BME280;69633;47.066;15.450;2023-12-28T08:16:18;98077.72;;;2.43;79.57
80321;BME280;69633;47.066;15.450;2023-12-28T08:18:43;98081.91;;;2.50;78.87
80321;BME280;69633;47.066;15.450;2023-12-28T08:21:08;98074.03;;;2.50;79.47
80321;BME280;69633;47.066;15.450;2023-12-28T08:23:34;98072.22;;;2.50;79.72
80321;BME280;69633;47.066;15.450;2023-12-28T08:25:59;98067.22;;;2.54;79.78
80321;BME280;69633;47.066;15.450;2023-12-28T08:28:25;98064.63;;;2.59;79.77
80321;BME280;69633;47.066;15.450;2023-12-28T08:30:50;98075.06;;;2.64;79.80
80321;BME280;69633;47.066;15.450;2023-12-28T08:33:16;98078.75;;;2.73;79.78
80321;BME280;69633;47.066;15.450;2023-12-28T08:35:41;98075.06;;;2.69;79.93
80321;BME280;69633;47.066;15.450;2023-12-28T08:38:07;98075.06;;;2.69;79.68
80321;BME280;69633;47.066;15.450;2023-12-28T08:40:32;98084.75;;;2.63;80.32
80321;BME280;69633;47.066;15.450;2023-12-28T08:42:57;98074.53;;;2.67;80.45
80321;BME280;69633;47.066;15.450;2023-12-28T08:45:23;98078.72;;;2.78;79.93
80321;BME280;69633;47.066;15.450;2023-12-28T08:47:48;98075.56;;;2.91;79.69
80321;BME280;69633;47.066;15.450;2023-12-28T08:50:14;98077.13;;;3.02;79.21
80321;BME280;69633;47.066;15.450;2023-12-28T08:52:40;98083.38;;;3.11;79.46
80321;BME280;69633;47.066;15.450;2023-12-28T08:55:05;98087.03;;;3.25;79.16
80321;BME280;69633;47.066;15.450;2023-12-28T08:57:31;98090.38;;;3.41;78.76
80321;BME280;69633;47.066;15.450;2023-12-28T08:59:57;98090.38;;;3.41;78.13
80321;BME280;69633;47.066;15.450;2023-12-28T09:02:23;98098.19;;;3.51;77.96
80321;BME280;69633;47.066;15.450;2023-12-28T09:04:48;98104.72;;;3.59;77.94
80321;BME280;69633;47.066;15.450;2023-12-28T09:07:13;98102.13;;;3.59;78.06
80321;BME280;69633;47.066;15.450;2023-12-28T09:09:40;98109.91;;;3.74;77.67
80321;BME280;69633;47.066;15.450;2023-12-28T09:12:06;98103.56;;;3.80;77.17
80321;BME280;69633;47.066;15.450;2023-12-28T09:14:32;98107.72;;;3.91;77.03
80321;BME280;69633;47.066;15.450;2023-12-28T09:16:57;98109.75;;;4.04;76.58
80321;BME280;69633;47.066;15.450;2023-12-28T09:19:23;98102.28;;;4.21;76.05
80321;BME280;69633;47.066;15.450;2023-12-28T09:21:48;98106.38;;;4.37;75.93
80321;BME280;69633;47.066;15.450;2023-12-28T09:24:13;98094.22;;;4.47;75.49
80321;BME280;69633;47.066;15.450;2023-12-28T09:26:41;98105.53;;;4.47;75.26
80321;BME280;69633;47.066;15.450;2023-12-28T09:29:06;98104.13;;;4.60;75.03
80321;BME280;69633;47.066;15.450;2023-12-28T09:31:32;98102.84;;;4.86;74.53
80321;BME280;69633;47.066;15.450;2023-12-28T09:33:57;98104.75;;;5.04;73.58
80321;BME280;69633;47.066;15.450;2023-12-28T09:36:23;98093.03;;;5.20;73.42
80321;BME280;69633;47.066;15.450;2023-12-28T09:38:48;98080.19;;;5.38;72.41
80321;BME280;69633;47.066;15.450;2023-12-28T09:41:15;98070.06;;;5.50;72.08
80321;BME280;69633;47.066;15.450;2023-12-28T09:43:53;98073.28;;;5.65;70.95
80321;BME280;69633;47.066;15.450;2023-12-28T09:46:18;98069.25;;;5.73;70.47
80321;BME280;69633;47.066;15.450;2023-12-28T09:48:44;98073.81;;;5.86;70.08
80321;BME280;69633;47.066;15.450;2023-12-28T09:51:10;98067.19;;;5.89;70.44
80321;BME280;69633;47.066;15.450;2023-12-28T09:53:36;98071.50;;;6.03;70.02
80321;BME280;69633;47.066;15.450;2023-12-28T09:56:02;98068.69;;;6.13;70.17
80321;BME280;69633;47.066;15.450;2023-12-28T09:58:28;98064.97;;;6.33;69.69
80321;BME280;69633;47.066;15.450;2023-12-28T10:00:56;98068.06;;;6.54;68.66
80321;BME280;69633;47.066;15.450;2023-12-28T10:03:21;98082.19;;;6.76;67.95
80321;BME280;69633;47.066;15.450;2023-12-28T10:05:47;98066.97;;;6.87;67.19
80321;BME280;69633;47.066;15.450;2023-12-28T10:08:14;98064.66;;;6.99;66.56
80321;BME280;69633;47.066;15.450;2023-12-28T10:10:40;98051.94;;;7.15;65.99
80321;BME280;69633;47.066;15.450;2023-12-28T10:13:07;98055.25;;;7.20;66.14
80321;BME280;69633;47.066;15.450;2023-12-28T10:15:33;98054.69;;;7.23;65.67
80321;BME280;69633;47.066;15.450;2023-12-28T10:17:58;98048.25;;;7.29;65.07
80321;BME280;69633;47.066;15.450;2023-12-28T10:20:27;98051.16;;;7.42;65.78
80321;BME280;69633;47.066;15.450;2023-12-28T10:22:52;98054.00;;;7.45;65.28
80321;BME280;69633;47.066;15.450;2023-12-28T10:25:18;98054.47;;;7.61;64.68
80321;BME280;69633;47.066;15.450;2023-12-28T10:27:44;98039.97;;;7.72;64.86
80321;BME280;69633;47.066;15.450;2023-12-28T10:30:10;98038.78;;;7.78;64.23
80321;BME280;69633;47.066;15.450;2023-12-28T10:32:39;98027.50;;;7.86;62.94
80321;BME280;69633;47.066;15.450;2023-12-28T10:35:05;98027.44;;;8.00;60.79
80321;BME280;69633;47.066;15.450;2023-12-28T10:37:31;98027.78;;;8.20;61.16
80321;BME280;69633;47.066;15.450;2023-12-28T10:39:59;98025.56;;;8.36;60.00
80321;BME280;69633;47.066;15.450;2023-12-28T10:42:32;98029.53;;;8.47;58.97
80321;BME280;69633;47.066;15.450;2023-12-28T10:45:03;98032.56;;;8.63;58.77
80321;BME280;69633;47.066;15.450;2023-12-28T10:47:43;98026.31;;;8.90;59.05
80321;BME280;69633;47.066;15.450;2023-12-28T10:50:10;98022.81;;;9.03;58.21
80321;BME280;69633;47.066;15.450;2023-12-28T10:52:37;98022.91;;;9.29;57.14
80321;BME280;69633;47.066;15.450;2023-12-28T10:58:10;98014.09;;;9.59;56.18
80321;BME280;69633;47.066;15.450;2023-12-28T11:00:53;98016.13;;;9.79;54.98
80321;BME280;69633;47.066;15.450;2023-12-28T11:03:23;98012.84;;;9.91;54.64
80321;BME280;69633;47.066;15.450;2023-12-28T11:05:53;98013.47;;;10.05;54.22
80321;BME280;69633;47.066;15.450;2023-12-28T11:08:19;98003.81;;;10.17;53.76
80321;BME280;69633;47.066;15.450;2023-12-28T11:10:47;98013.94;;;10.24;55.06
80321;BME280;69633;47.066;15.450;2023-12-28T11:13:13;98005.06;;;10.37;53.96
80321;BME280;69633;47.066;15.450;2023-12-28T11:15:41;98014.84;;;10.54;53.89
80321;BME280;69633;47.066;15.450;2023-12-28T11:18:06;98004.50;;;10.61;53.40
80321;BME280;69633;47.066;15.450;2023-12-28T11:20:32;97995.75;;;10.69;53.22
80321;BME280;69633;47.066;15.450;2023-12-28T11:22:58;97983.88;;;10.75;52.91
80321;BME280;69633;47.066;15.450;2023-12-28T11:25:30;97991.66;;;10.80;53.26
80321;BME280;69633;47.066;15.450;2023-12-28T11:27:56;97987.25;;;10.84;53.17
80321;BME280;69633;47.066;15.450;2023-12-28T11:30:25;97993.19;;;10.90;52.96
80321;BME280;69633;47.066;15.450;2023-12-28T11:32:56;97986.28;;;10.97;53.18
80321;BME280;69633;47.066;15.450;2023-12-28T11:35:22;97987.84;;;10.98;53.92
80321;BME280;69633;47.066;15.450;2023-12-28T11:37:51;97988.19;;;10.88;55.34
80321;BME280;69633;47.066;15.450;2023-12-28T11:40:17;97986.97;;;10.77;56.11
80321;BME280;69633;47.066;15.450;2023-12-28T11:42:54;97997.81;;;10.63;57.05
80321;BME280;69633;47.066;15.450;2023-12-28T11:45:22;98002.06;;;10.39;57.35
80321;BME280;69633;47.066;15.450;2023-12-28T11:48:01;97997.97;;;10.50;57.05
80321;BME280;69633;47.066;15.450;2023-12-28T11:50:27;97983.44;;;10.64;56.28
80321;BME280;69633;47.066;15.450;2023-12-28T11:52:52;97968.50;;;10.89;56.11
80321;BME280;69633;47.066;15.450;2023-12-28T11:55:21;97961.44;;;11.02;55.64
80321;BME280;69633;47.066;15.450;2023-12-28T11:57:48;97954.31;;;11.14;55.03
80321;BME280;69633;47.066;15.450;2023-12-28T12:00:14;97960.44;;;11.36;54.86
80321;BME280;69633;47.066;15.450;2023-12-28T12:02:43;97953.69;;;11.59;54.14
80321;BME280;69633;47.066;15.450;2023-12-28T12:05:12;97949.53;;;11.70;53.61
80321;BME280;69633;47.066;15.450;2023-12-28T12:07:38;97952.78;;;11.84;53.47
80321;BME280;69633;47.066;15.450;2023-12-28T12:10:04;97956.19;;;11.85;53.03
80321;BME280;69633;47.066;15.450;2023-12-28T12:12:29;97965.38;;;11.46;54.27
80321;BME280;69633;47.066;15.450;2023-12-28T12:14:55;97958.53;;;11.36;54.68
80321;BME280;69633;47.066;15.450;2023-12-28T12:17:21;97954.44;;;11.68;53.89
80321;BME280;69633;47.066;15.450;2023-12-28T12:19:47;97956.59;;;11.95;53.20
80321;BME280;69633;47.066;15.450;2023-12-28T12:22:16;97950.97;;;12.09;52.35
80321;BME280;69633;47.066;15.450;2023-12-28T12:24:44;97963.63;;;12.12;52.01
80321;BME280;69633;47.066;15.450;2023-12-28T12:27:10;97968.00;;;12.29;51.98
80321;BME280;69633;47.066;15.450;2023-12-28T12:29:35;97963.34;;;12.38;51.17
80321;BME280;69633;47.066;15.450;2023-12-28T12:32:00;97958.06;;;12.50;51.01
80321;BME280;69633;47.066;15.450;2023-12-28T12:34:28;97961.84;;;12.61;50.65
80321;BME280;69633;47.066;15.450;2023-12-28T12:36:54;97957.22;;;12.82;49.79
80321;BME280;69633;47.066;15.450;2023-12-28T12:39:19;97953.25;;;13.25;48.89
80321;BME280;69633;47.066;15.450;2023-12-28T12:41:48;97951.81;;;13.79;48.90
80321;BME280;69633;47.066;15.450;2023-12-28T12:44:14;97946.38;;;14.63;47.00
80321;BME280;69633;47.066;15.450;2023-12-28T12:46:42;97946.94;;;15.19;46.21
80321;BME280;69633;47.066;15.450;2023-12-28T12:49:07;97951.31;;;15.97;44.69
80321;BME280;69633;47.066;15.450;2023-12-28T12:51:33;97966.00;;;16.44;43.51
80321;BME280;69633;47.066;15.450;2023-12-28T12:54:02;97958.97;;;17.05;42.68
80321;BME280;69633;47.066;15.450;2023-12-28T12:56:29;97966.59;;;17.55;41.55